Terminal Aerodrome Forecast
Issued by NWS Paducah, KY

Home | Current Version | Previous Version | Graphics & Text | Print | Product List | Glossary On
Versions: 1 2 3 4 5 6 7 8 9 10 11 12 13 14 15 16 17 18 19 20
000
FTUS43 KPAH 270305 AAB
TAFEVV
TAF AMD
KEVV 270305Z 2703/2724 34009G15KT P6SM VCSH SCT060 BKN150
      TEMPO 2703/2704 3SM SHRA BR BKN040
     FM270400 00000KT P6SM SCT050 BKN150
     FM270700 00000KT 5SM BR FEW040 SCT100
     FM271400 22005KT P6SM SCT035=

USA.gov is the U.S. government's official web portal to all federal, state and local government web resources and services.